Time;durP1;ratioP1;P1;durP2;ratioP2;P2;SDS_P1;SDS_P2;PMS_P1;PMS_P2;Temp;Humidity;BMP_temperature;BMP_pressure;BME280_temperature;BME280_humidity;BME280_pressure;Samples;Min_cycle;Max_cycle;Signal;HPM_P1;HPM_P2
2022/07/13 00:00:31;;;;;;;3.03;2.13;;;;;;;19.69;93.66;102048.59;5040729;28;20028;-71
2022/07/13 00:02:56;;;;;;;2.20;1.50;;;;;;;19.77;92.45;102036.13;5039224;28;20029;-71
2022/07/13 00:05:21;;;;;;;2.78;2.15;;;;;;;19.76;92.76;102040.66;5037705;28;20363;-71
2022/07/13 00:07:47;;;;;;;3.05;1.80;;;;;;;19.75;93.38;102043.53;5038513;28;20024;-70
2022/07/13 00:10:12;;;;;;;3.05;1.60;;;;;;;19.66;92.89;102018.63;5037497;28;20098;-72
2022/07/13 00:12:38;;;;;;;1.60;1.40;;;;;;;19.77;93.60;102030.78;5024645;28;20036;-70
2022/07/13 00:15:04;;;;;;;1.88;1.60;;;;;;;19.73;92.67;102020.44;5035310;28;20037;-70
2022/07/13 00:17:29;;;;;;;5.10;2.17;;;;;;;19.75;92.99;102022.94;5020808;28;20045;-70
2022/07/13 00:19:55;;;;;;;3.85;1.50;;;;;;;19.71;92.60;102016.28;5038273;28;20017;-70
2022/07/13 00:22:20;;;;;;;2.67;1.65;;;;;;;19.79;92.32;102028.75;5034695;28;20032;-71
2022/07/13 00:24:46;;;;;;;2.30;2.05;;;;;;;19.77;92.49;102030.78;5035948;28;20026;-70
2022/07/13 00:27:11;;;;;;;11.30;1.98;;;;;;;19.74;92.64;102031.97;5036756;28;20033;-70
2022/07/13 00:29:36;;;;;;;2.50;1.35;;;;;;;19.74;93.09;102026.63;5036591;28;20041;-70
2022/07/13 00:32:02;;;;;;;2.40;1.52;;;;;;;19.69;92.91;102021.81;5037139;28;20028;-70
2022/07/13 00:34:30;;;;;;;1.92;1.50;;;;;;;19.68;92.84;102017.44;5038538;28;20033;-70
2022/07/13 00:36:56;;;;;;;8.52;1.42;;;;;;;19.71;92.65;102017.13;5037703;28;20021;-71
2022/07/13 00:39:21;;;;;;;1.40;1.27;;;;;;;19.65;92.76;101996.38;5035982;28;20048;-71
2022/07/13 00:41:47;;;;;;;2.05;1.63;;;;;;;19.80;92.60;102007.16;5019699;28;20424;-71
2022/07/13 00:44:14;;;;;;;2.40;1.48;;;;;;;19.78;93.27;101994.97;5035181;28;20029;-71
2022/07/13 00:46:44;;;;;;;2.38;1.70;;;;;;;19.70;93.01;101991.31;5033383;28;20568;-71
2022/07/13 00:49:11;;;;;;;1.85;1.15;;;;;;;19.59;93.47;101994.41;5036901;28;20024;-71
2022/07/13 00:51:37;;;;;;;4.00;2.03;;;;;;;19.59;94.51;102007.00;5034005;28;20497;-71
2022/07/13 00:54:03;;;;;;;3.05;1.90;;;;;;;19.50;95.02;101984.81;5037683;28;20197;-72
2022/07/13 00:56:30;;;;;;;2.63;1.70;;;;;;;19.35;95.20;101971.38;5034759;28;20134;-71
2022/07/13 00:58:57;;;;;;;2.80;2.00;;;;;;;19.40;95.53;101977.03;5044271;28;20326;-71
2022/07/13 01:01:23;;;;;;;2.85;1.83;;;;;;;19.26;95.99;101959.91;5037439;28;20206;-72
2022/07/13 01:03:48;;;;;;;2.78;2.00;;;;;;;19.33;95.22;101976.91;5036270;28;20096;-71
2022/07/13 01:06:14;;;;;;;3.50;2.03;;;;;;;19.22;95.88;101965.81;5037752;28;20030;-71
2022/07/13 01:08:40;;;;;;;2.47;1.52;;;;;;;19.20;96.43;101954.44;5035278;28;20402;-71
2022/07/13 01:11:06;;;;;;;1.98;1.42;;;;;;;19.28;96.37;101967.78;5037742;28;20128;-71
2022/07/13 01:13:33;;;;;;;2.38;1.88;;;;;;;19.22;97.09;101958.59;5039833;28;20407;-71
2022/07/13 01:15:58;;;;;;;6.22;2.35;;;;;;;19.24;96.97;101961.13;5038341;28;20037;-71
2022/07/13 01:18:24;;;;;;;1.40;1.30;;;;;;;19.23;97.46;101957.59;5034813;28;20482;-70
2022/07/13 01:20:50;;;;;;;2.03;1.77;;;;;;;19.23;97.84;101952.25;5037020;28;20596;-71
2022/07/13 01:23:16;;;;;;;3.55;2.47;;;;;;;19.21;97.80;101959.63;5038756;28;20037;-70
2022/07/13 01:25:42;;;;;;;1.90;1.65;;;;;;;19.14;97.65;101942.63;5035305;28;20060;-70
2022/07/13 01:28:08;;;;;;;2.60;1.92;;;;;;;19.13;98.02;101934.78;5036959;28;20058;-71
2022/07/13 01:30:34;;;;;;;2.17;1.77;;;;;;;19.23;98.24;101944.22;5036683;28;20116;-71
2022/07/13 01:33:00;;;;;;;5.57;2.20;;;;;;;19.21;98.79;101938.22;5038252;28;20389;-71
2022/07/13 01:35:25;;;;;;;2.80;1.98;;;;;;;19.19;97.68;101934.91;5039954;28;20025;-71
2022/07/13 01:37:52;;;;;;;3.60;2.00;;;;;;;19.09;98.70;101910.22;5033704;28;20037;-70
2022/07/13 01:40:18;;;;;;;4.95;2.72;;;;;;;19.15;98.90;101922.88;5019391;28;20036;-71
2022/07/13 01:42:51;;;;;;;3.45;2.00;;;;;;;19.14;98.63;101920.38;5036402;28;20025;-71
2022/07/13 01:45:22;;;;;;;2.47;2.28;;;;;;;19.07;98.38;101917.59;5038989;28;20033;-70
2022/07/13 01:47:49;;;;;;;3.50;2.03;;;;;;;19.10;98.89;101922.59;5034588;28;20499;-71
2022/07/13 01:50:18;;;;;;;3.88;2.28;;;;;;;19.14;99.23;101923.06;5036842;28;20116;-70
2022/07/13 01:52:44;;;;;;;2.35;1.63;;;;;;;19.15;98.22;101919.38;5034201;28;20488;-70
2022/07/13 01:55:12;;;;;;;4.25;2.13;;;;;;;19.16;97.95;101908.47;5035443;28;20063;-71
2022/07/13 01:57:38;;;;;;;2.72;1.92;;;;;;;19.13;98.29;101903.50;5035815;28;20052;-70
2022/07/13 02:00:13;;;;;;;4.47;2.30;;;;;;;19.23;98.17;101920.16;5035517;28;20027;-70
2022/07/13 02:02:39;;;;;;;4.05;2.67;;;;;;;19.24;97.19;101919.13;5033673;28;20032;-70
2022/07/13 02:05:05;;;;;;;2.80;2.22;;;;;;;19.21;97.57;101908.78;5039194;28;20025;-71
2022/07/13 02:07:30;;;;;;;3.70;2.17;;;;;;;19.21;96.89;101907.97;5035937;28;20040;-71
2022/07/13 02:09:55;;;;;;;3.28;2.28;;;;;;;19.10;97.58;101891.31;5040093;28;20025;-71
2022/07/13 02:12:21;;;;;;;3.53;2.10;;;;;;;19.21;97.83;101898.09;5032877;28;20073;-70
2022/07/13 02:14:47;;;;;;;3.35;2.10;;;;;;;19.21;97.72;101891.91;5036805;28;20054;-70
2022/07/13 02:17:12;;;;;;;3.30;2.15;;;;;;;19.12;96.91;101864.38;5040469;28;20022;-70
2022/07/13 02:19:38;;;;;;;5.07;2.78;;;;;;;19.19;96.66;101862.63;5037602;28;20033;-71
2022/07/13 02:22:03;;;;;;;4.72;2.35;;;;;;;19.17;97.07;101867.34;5034495;28;20032;-71
2022/07/13 02:24:29;;;;;;;3.00;2.30;;;;;;;19.15;97.72;101861.34;5037842;28;20445;-70
2022/07/13 02:26:54;;;;;;;2.75;2.22;;;;;;;19.17;97.94;101864.66;5037593;28;20835;-71
2022/07/13 02:29:19;;;;;;;3.45;2.60;;;;;;;19.20;97.57;101875.00;5036157;28;20115;-70
2022/07/13 02:31:45;;;;;;;8.20;2.95;;;;;;;19.21;96.96;101865.97;5036994;28;20120;-70
2022/07/13 02:34:10;;;;;;;3.50;2.22;;;;;;;19.19;96.44;101868.00;5035325;28;20036;-70
2022/07/13 02:36:36;;;;;;;4.88;2.63;;;;;;;19.25;96.56;101880.66;5035630;28;20033;-70
2022/07/13 02:39:02;;;;;;;2.88;2.03;;;;;;;19.30;96.23;101878.25;5037642;28;20033;-70
2022/07/13 02:41:28;;;;;;;3.63;2.97;;;;;;;19.28;95.73;101874.91;5038306;28;20460;-70
2022/07/13 02:43:53;;;;;;;3.35;2.90;;;;;;;19.28;96.74;101880.28;5038528;28;20116;-70
2022/07/13 02:46:18;;;;;;;5.07;2.38;;;;;;;19.25;95.38;101875.28;5033589;28;20632;-70
2022/07/13 02:48:44;;;;;;;5.05;2.53;;;;;;;19.25;95.46;101867.28;5035448;28;20363;-70
2022/07/13 02:51:09;;;;;;;4.90;3.42;;;;;;;19.24;95.80;101865.59;5034295;28;20087;-70
2022/07/13 02:53:34;;;;;;;3.80;2.35;;;;;;;19.13;95.50;101841.97;5040703;28;20500;-70
2022/07/13 02:56:00;;;;;;;3.60;2.83;;;;;;;19.21;95.27;101854.44;5020784;28;20386;-70
2022/07/13 02:58:25;;;;;;;4.88;3.25;;;;;;;19.28;94.95;101858.88;5038215;28;20438;-70
2022/07/13 03:00:51;;;;;;;7.13;2.63;;;;;;;19.32;93.97;101856.66;5038652;28;20033;-70
2022/07/13 03:03:16;;;;;;;9.05;3.15;;;;;;;19.29;93.49;101857.00;5036720;28;20030;-70
2022/07/13 03:05:41;;;;;;;3.60;2.20;;;;;;;19.27;92.51;101843.84;5037573;28;20099;-70
2022/07/13 03:08:07;;;;;;;5.43;3.03;;;;;;;19.41;91.63;101860.09;5021456;28;20029;-70
2022/07/13 03:10:32;;;;;;;3.63;2.40;;;;;;;19.33;91.62;101837.72;5037329;28;20045;-70
2022/07/13 03:12:58;;;;;;;4.15;2.63;;;;;;;19.50;91.45;101857.13;5038723;28;20508;-70
2022/07/13 03:15:24;;;;;;;3.65;2.15;;;;;;;19.54;90.53;101862.94;5043108;28;20025;-70
2022/07/13 03:17:50;;;;;;;4.22;2.55;;;;;;;19.47;90.38;101840.63;5044372;28;20041;-70
2022/07/13 03:20:15;;;;;;;8.35;3.08;;;;;;;19.40;90.19;101820.94;5039556;28;20075;-70
2022/07/13 03:22:40;;;;;;;4.10;2.47;;;;;;;19.56;90.51;101847.53;5021748;28;20033;-70
2022/07/13 03:25:06;;;;;;;5.25;3.28;;;;;;;19.46;90.53;101839.75;5038288;28;20025;-70
2022/07/13 03:27:32;;;;;;;3.78;2.40;;;;;;;19.53;91.20;101848.72;5035277;28;20588;-70
2022/07/13 03:29:57;;;;;;;3.60;2.40;;;;;;;19.53;90.46;101843.38;5038773;28;20053;-70
2022/07/13 03:32:23;;;;;;;3.42;3.13;;;;;;;19.52;91.27;101840.88;5039461;28;20029;-70
2022/07/13 03:34:48;;;;;;;4.25;3.03;;;;;;;19.50;90.94;101851.75;5055513;28;20036;-70
2022/07/13 03:37:14;;;;;;;3.92;2.78;;;;;;;19.49;91.48;101839.41;5037749;28;20037;-70
2022/07/13 03:39:39;;;;;;;5.75;2.75;;;;;;;19.43;91.35;101831.28;5035442;28;20292;-70
2022/07/13 03:42:06;;;;;;;4.30;2.63;;;;;;;19.47;92.02;101837.94;5041721;28;20025;-70
2022/07/13 03:44:31;;;;;;;3.75;2.50;;;;;;;19.47;91.16;101837.94;5039572;28;20530;-70
2022/07/13 03:46:57;;;;;;;4.55;2.60;;;;;;;19.45;92.25;101839.97;5036403;28;20088;-71
2022/07/13 03:49:22;;;;;;;3.10;2.45;;;;;;;19.42;92.17;101837.63;5033115;28;20037;-71
2022/07/13 03:51:48;;;;;;;2.75;2.20;;;;;;;19.40;92.52;101837.84;5044904;28;20029;-71
2022/07/13 03:54:14;;;;;;;3.10;2.63;;;;;;;19.40;92.11;101837.00;5035604;28;20033;-71
2022/07/13 03:56:39;;;;;;;3.28;2.28;;;;;;;19.30;92.74;101821.22;5044525;28;20064;-70
2022/07/13 03:59:05;;;;;;;3.88;2.47;;;;;;;19.31;92.91;101834.44;5038670;28;20033;-70
2022/07/13 04:01:31;;;;;;;7.75;3.08;;;;;;;19.30;93.16;101829.25;5043520;28;20041;-70
2022/07/13 04:03:58;;;;;;;4.80;2.90;;;;;;;19.25;93.12;101819.09;5037587;28;20021;-71
2022/07/13 04:06:24;;;;;;;4.60;2.80;;;;;;;19.21;93.54;101816.97;5037965;28;20021;-70
2022/07/13 04:08:50;;;;;;;6.45;2.67;;;;;;;19.12;93.63;101802.84;5035534;28;20528;-70
2022/07/13 04:11:16;;;;;;;3.65;2.40;;;;;;;19.24;92.87;101819.28;5034971;28;20454;-70
2022/07/13 04:13:42;;;;;;;3.90;3.08;;;;;;;19.23;93.07;101821.13;5032142;28;20029;-70
2022/07/13 04:16:07;;;;;;;5.65;4.15;;;;;;;19.21;93.96;101808.94;5038144;28;20112;-70
2022/07/13 04:18:33;;;;;;;3.97;2.88;;;;;;;19.22;92.90;101813.28;5034192;28;20044;-71
2022/07/13 04:20:58;;;;;;;4.25;2.75;;;;;;;19.25;92.82;101816.41;5030856;28;20112;-70
2022/07/13 04:23:23;;;;;;;4.35;3.00;;;;;;;19.27;92.68;101822.41;5032375;28;20029;-70
2022/07/13 04:25:49;;;;;;;4.28;2.42;;;;;;;19.32;91.70;101814.66;5035980;28;20112;-71
2022/07/13 04:28:14;;;;;;;5.78;2.53;;;;;;;19.31;91.57;101814.84;5038172;28;20033;-71
2022/07/13 04:30:39;;;;;;;4.32;2.25;;;;;;;19.39;90.52;101813.94;5019248;28;20037;-70
2022/07/13 04:33:05;;;;;;;3.00;1.85;;;;;;;19.48;89.89;101821.66;5030399;28;20032;-71
2022/07/13 04:35:30;;;;;;;3.83;2.35;;;;;;;19.53;nan;101810.41;5031238;28;20112;-70
2022/07/13 04:37:55;;;;;;;4.05;2.70;;;;;;;19.58;88.53;101813.38;5034629;28;20053;-70
2022/07/13 04:40:21;;;;;;;3.03;2.08;;;;;;;19.69;87.72;101822.78;5032167;28;20029;-70
2022/07/13 04:42:46;;;;;;;4.15;2.90;;;;;;;19.65;87.86;101803.56;5034444;28;20029;-70
2022/07/13 04:45:12;;;;;;;3.38;2.50;;;;;;;19.79;86.78;101817.16;5032570;28;20032;-70
2022/07/13 04:47:38;;;;;;;2.38;1.60;;;;;;;19.83;87.17;101824.63;5036654;28;20100;-71
2022/07/13 04:50:04;;;;;;;2.90;2.22;;;;;;;19.80;87.30;101808.09;5034799;28;20028;-71
2022/07/13 04:52:30;;;;;;;3.13;2.42;;;;;;;19.96;87.74;101825.81;5034186;28;20053;-71
2022/07/13 04:54:55;;;;;;;3.70;2.10;;;;;;;19.97;86.91;101825.63;5035567;28;20063;-70
2022/07/13 04:57:20;;;;;;;4.80;2.22;;;;;;;20.03;86.47;101815.97;5032674;28;20084;-70
2022/07/13 04:59:46;;;;;;;4.43;2.80;;;;;;;20.05;86.20;101814.78;5032976;28;20737;-70
2022/07/13 05:02:11;;;;;;;4.22;1.95;;;;;;;20.17;85.75;101825.03;5029647;28;20084;-70
2022/07/13 05:04:37;;;;;;;2.65;2.05;;;;;;;20.23;85.89;101826.91;5028120;28;20067;-70
2022/07/13 05:07:02;;;;;;;2.45;2.13;;;;;;;20.27;85.38;101829.06;5030664;28;20363;-70
2022/07/13 05:09:27;;;;;;;3.92;2.17;;;;;;;20.24;85.68;101809.84;5032687;28;20128;-71
2022/07/13 05:11:53;;;;;;;4.60;2.25;;;;;;;20.34;85.70;101818.41;5030614;28;20405;-70
2022/07/13 05:14:18;;;;;;;4.60;2.78;;;;;;;20.38;85.47;101819.66;5028046;28;20071;-70
2022/07/13 05:16:43;;;;;;;3.45;2.35;;;;;;;20.41;85.26;101818.47;5031989;28;20338;-69
2022/07/13 05:19:09;;;;;;;2.92;1.80;;;;;;;20.46;84.93;101822.22;5034640;28;20034;-68
2022/07/13 05:21:34;;;;;;;4.93;2.85;;;;;;;20.41;85.55;101802.38;5036541;28;20033;-68
2022/07/13 05:24:00;;;;;;;5.90;2.28;;;;;;;20.48;85.38;101825.53;5018250;28;20036;-70
2022/07/13 05:26:25;;;;;;;3.00;1.95;;;;;;;20.51;85.55;101830.53;5034995;28;20033;-69
2022/07/13 05:28:50;;;;;;;3.35;2.20;;;;;;;20.43;85.82;101811.06;5029962;28;20029;-69
2022/07/13 05:31:16;;;;;;;4.47;2.83;;;;;;;20.51;85.78;101829.69;5031191;28;20041;-69
2022/07/13 05:33:41;;;;;;;3.67;2.05;;;;;;;20.42;85.30;101809.38;5040389;28;20063;-70
2022/07/13 05:36:07;;;;;;;2.75;2.05;;;;;;;20.55;85.74;101822.91;5026118;28;20037;-69
2022/07/13 05:38:32;;;;;;;3.78;2.38;;;;;;;20.53;85.31;101823.13;5034502;28;20025;-69
2022/07/13 05:40:57;;;;;;;3.22;1.75;;;;;;;20.55;85.63;101826.41;5013425;28;20033;-70
2022/07/13 05:43:24;;;;;;;4.05;2.08;;;;;;;20.57;85.75;101834.31;5031973;28;20086;-69
2022/07/13 05:45:50;;;;;;;5.15;2.50;;;;;;;20.53;85.66;101817.75;5033749;28;20033;-69
2022/07/13 05:48:15;;;;;;;5.13;2.75;;;;;;;20.58;86.54;101835.13;5035816;28;20037;-69
2022/07/13 05:50:41;;;;;;;3.85;2.20;;;;;;;20.63;86.50;101830.03;5027035;28;20033;-70
2022/07/13 05:53:07;;;;;;;3.58;2.33;;;;;;;20.66;86.05;101832.31;5030131;28;20063;-69
2022/07/13 05:55:32;;;;;;;3.65;2.40;;;;;;;20.67;86.46;101834.00;5031982;28;20041;-69
2022/07/13 05:57:57;;;;;;;3.83;2.33;;;;;;;20.69;86.68;101840.00;5030690;28;20056;-70
2022/07/13 06:00:23;;;;;;;2.85;1.88;;;;;;;20.70;87.00;101838.97;5031229;28;20349;-69
2022/07/13 06:02:48;;;;;;;3.45;2.42;;;;;;;20.71;87.24;101841.47;5035302;28;20055;-70
2022/07/13 06:05:13;;;;;;;8.07;3.25;;;;;;;20.71;87.41;101841.47;5034686;28;20412;-70
2022/07/13 06:07:39;;;;;;;5.88;3.58;;;;;;;20.73;87.61;101839.41;5038628;28;20034;-70
2022/07/13 06:10:05;;;;;;;3.78;2.58;;;;;;;20.67;87.99;101824.09;5037647;28;20481;-70
2022/07/13 06:12:30;;;;;;;6.05;3.47;;;;;;;20.79;88.78;101835.13;5036862;28;20036;-71
2022/07/13 06:14:56;;;;;;;4.90;3.05;;;;;;;20.81;89.48;101827.69;5029205;28;20459;-71
2022/07/13 06:17:22;;;;;;;4.65;2.80;;;;;;;20.85;88.48;101823.63;5041893;28;20025;-69
2022/07/13 06:19:49;;;;;;;4.80;3.03;;;;;;;20.98;89.02;101836.31;5030186;28;20022;-69
2022/07/13 06:22:15;;;;;;;4.32;3.03;;;;;;;21.03;88.03;101819.63;5039911;28;20067;-69
2022/07/13 06:24:41;;;;;;;3.85;3.42;;;;;;;21.09;88.38;101832.25;5035691;28;20030;-71
2022/07/13 06:27:07;;;;;;;3.97;2.85;;;;;;;21.20;87.93;101831.72;5044440;28;20462;-69
2022/07/13 06:29:33;;;;;;;6.05;3.42;;;;;;;21.34;88.19;101825.41;5047468;28;20072;-69
2022/07/13 06:31:58;;;;;;;4.22;2.50;;;;;;;21.49;87.83;101824.47;5040212;28;20036;-70
2022/07/13 06:34:23;;;;;;;5.28;2.67;;;;;;;21.69;87.27;101838.03;5045860;28;20062;-71
2022/07/13 06:36:49;;;;;;;5.03;3.22;;;;;;;21.90;87.41;101834.38;5038586;28;20533;-69
2022/07/13 06:39:14;;;;;;;6.00;3.15;;;;;;;22.04;87.64;101819.94;5044426;28;20140;-69
2022/07/13 06:41:39;;;;;;;4.43;2.50;;;;;;;22.12;86.61;101825.16;5039677;28;20053;-69
2022/07/13 06:44:05;;;;;;;4.13;2.55;;;;;;;22.09;86.77;101804.03;5035839;28;20453;-70
2022/07/13 06:46:31;;;;;;;5.55;2.78;;;;;;;22.41;86.42;101796.28;5041296;28;20100;-70
2022/07/13 06:48:56;;;;;;;5.75;3.00;;;;;;;22.63;84.23;101813.03;5032518;28;20029;-69
2022/07/13 06:51:23;;;;;;;7.50;3.05;;;;;;;22.93;84.83;101810.75;5038418;28;20045;-69
2022/07/13 06:53:48;;;;;;;4.10;2.55;;;;;;;23.67;83.96;101807.88;5032033;28;20040;-69
2022/07/13 06:56:14;;;;;;;4.18;2.88;;;;;;;24.38;79.79;101806.91;5037554;28;20439;-70
2022/07/13 06:58:39;;;;;;;3.75;2.60;;;;;;;24.98;77.64;101811.84;5042509;28;20063;-69
2022/07/13 07:01:05;;;;;;;2.80;2.05;;;;;;;25.41;73.32;101814.53;5043309;28;20029;-69
2022/07/13 07:03:30;;;;;;;6.30;2.92;;;;;;;25.60;74.43;101823.41;5038110;28;20057;-70
2022/07/13 07:05:56;;;;;;;4.70;2.90;;;;;;;26.21;72.81;101820.78;5036566;28;20029;-70
2022/07/13 07:08:22;;;;;;;4.20;2.47;;;;;;;26.56;71.18;101820.06;5036172;28;20040;-70
2022/07/13 07:10:47;;;;;;;4.85;3.03;;;;;;;27.02;69.87;101818.41;5037450;28;20033;-70
2022/07/13 07:13:13;;;;;;;9.02;3.33;;;;;;;27.55;68.30;101816.63;5043312;28;20037;-70
2022/07/13 07:15:39;;;;;;;3.92;2.47;;;;;;;28.03;66.46;101826.25;5048389;28;20018;-70
2022/07/13 07:18:05;;;;;;;3.60;2.15;;;;;;;28.55;64.86;101834.25;5045114;28;20400;-70
2022/07/13 07:20:31;;;;;;;3.03;1.92;;;;;;;28.68;65.47;101831.19;5045855;28;20040;-70
2022/07/13 07:22:56;;;;;;;2.83;2.22;;;;;;;29.07;64.04;101825.78;5038808;28;20029;-70
2022/07/13 07:25:21;;;;;;;6.75;2.38;;;;;;;29.42;63.39;101824.66;5043280;28;20017;-69
2022/07/13 07:27:48;;;;;;;7.10;3.45;;;;;;;29.61;61.13;101827.84;5042210;28;20057;-69
2022/07/13 07:30:13;;;;;;;4.53;2.85;;;;;;;29.52;61.94;101834.81;5038514;28;20108;-72
2022/07/13 07:32:39;;;;;;;5.18;2.40;;;;;;;29.89;61.16;101835.00;5021771;28;20604;-71
2022/07/13 07:35:07;;;;;;;4.68;2.38;;;;;;;29.98;61.29;101826.38;5035123;28;20523;-70
2022/07/13 07:37:33;;;;;;;7.15;3.28;;;;;;;30.58;60.25;101825.31;5036472;28;20508;-71
2022/07/13 07:39:59;;;;;;;14.38;3.10;;;;;;;30.79;59.18;101814.53;5032368;28;20560;-70
2022/07/13 07:42:25;;;;;;;6.90;2.97;;;;;;;31.23;57.57;101819.72;5039813;28;20167;-70
2022/07/13 07:44:50;;;;;;;4.32;2.70;;;;;;;31.46;56.91;101829.41;5044186;28;20074;-70
2022/07/13 07:47:16;;;;;;;4.95;2.42;;;;;;;31.92;57.31;101819.47;5040735;28;20045;-70
2022/07/13 07:49:42;;;;;;;4.53;2.55;;;;;;;32.00;56.08;101826.31;5040297;28;20064;-70
2022/07/13 07:52:08;;;;;;;9.50;3.00;;;;;;;32.31;55.17;101821.69;5042686;28;20082;-70
2022/07/13 07:54:34;;;;;;;6.32;3.47;;;;;;;32.60;53.89;101818.44;5034241;28;20051;-70
2022/07/13 07:56:59;;;;;;;4.35;2.78;;;;;;;32.96;52.76;101812.88;5017439;28;20081;-70
2022/07/13 07:59:24;;;;;;;6.18;3.28;;;;;;;32.92;54.05;101800.88;5037532;28;20033;-70
2022/07/13 08:01:50;;;;;;;4.68;2.72;;;;;;;33.55;53.02;101811.31;5040140;28;20116;-70
2022/07/13 08:04:15;;;;;;;3.75;2.60;;;;;;;33.84;51.21;101816.09;5039714;28;20048;-70
2022/07/13 08:06:41;;;;;;;8.00;3.63;;;;;;;33.86;51.27;101809.22;5038746;28;20024;-70
2022/07/13 08:09:06;;;;;;;4.25;2.05;;;;;;;33.92;50.94;101808.09;5040262;28;20075;-70
2022/07/13 08:11:32;;;;;;;5.72;2.83;;;;;;;34.28;50.98;101812.53;5040335;28;20392;-70
2022/07/13 08:13:57;;;;;;;7.88;2.95;;;;;;;34.79;50.38;101804.63;5041534;28;20106;-70
2022/07/13 08:16:23;;;;;;;4.85;3.00;;;;;;;34.92;49.76;101785.84;5036521;28;20021;-70
2022/07/13 08:18:49;;;;;;;6.00;2.22;;;;;;;35.17;48.68;101795.72;5036490;28;20028;-70
2022/07/13 08:21:14;;;;;;;4.07;2.08;;;;;;;35.21;50.08;101800.34;5040697;28;20029;-71
2022/07/13 08:23:51;;;;;;;4.88;2.65;;;;;;;35.25;48.58;101797.81;5035251;28;20037;-70
2022/07/13 08:26:21;;;;;;;3.97;2.05;;;;;;;35.23;48.31;101803.63;5039725;28;20017;-70
2022/07/13 08:28:47;;;;;;;3.53;2.22;;;;;;;35.49;48.47;101805.19;5035107;28;20025;-70
2022/07/13 08:31:12;;;;;;;4.25;2.65;;;;;;;35.72;48.76;101809.03;5045752;28;20417;-70
2022/07/13 08:39:11;;;;;;;4.97;2.10;;;;;;;36.82;46.58;101812.13;5041750;28;20048;-70
2022/07/13 08:41:37;;;;;;;4.45;2.60;;;;;;;36.90;45.99;101809.78;5039044;28;20033;-70
2022/07/13 08:44:03;;;;;;;4.18;1.67;;;;;;;36.98;46.48;101809.88;5036910;28;20051;-70
2022/07/13 08:46:29;;;;;;;10.02;1.98;;;;;;;37.35;45.50;101804.47;5039828;28;20712;-71
2022/07/13 08:48:55;;;;;;;3.13;1.48;;;;;;;37.42;45.73;101815.88;5032173;28;20341;-70
2022/07/13 08:51:23;;;;;;;2.25;1.30;;;;;;;37.64;44.74;101807.69;5036195;28;20028;-70
2022/07/13 08:53:53;;;;;;;1.73;1.30;;;;;;;37.78;43.63;101806.81;5034552;28;20060;-70
2022/07/13 08:56:19;;;;;;;1.98;1.27;;;;;;;38.05;44.03;101801.22;5033133;28;20050;-70
2022/07/13 08:58:44;;;;;;;2.97;1.40;;;;;;;38.01;42.12;101802.94;5039611;28;20473;-70
2022/07/13 09:01:11;;;;;;;2.95;0.90;;;;;;;38.23;41.37;101796.63;5036297;28;20032;-70
2022/07/13 09:03:37;;;;;;;2.00;1.25;;;;;;;38.17;40.73;101797.06;5033439;28;20030;-70
2022/07/13 09:06:03;;;;;;;2.63;1.00;;;;;;;38.21;40.83;101804.41;5032765;28;20060;-70
2022/07/13 09:08:29;;;;;;;1.85;1.08;;;;;;;38.60;41.52;101804.78;5037464;28;20059;-71
2022/07/13 09:10:59;;;;;;;1.52;1.10;;;;;;;39.07;40.64;101819.75;5026522;28;20028;-71
2022/07/13 09:13:39;;;;;;;2.95;1.10;;;;;;;38.71;40.39;101817.16;5037262;28;20033;-71
2022/07/13 09:16:22;;;;;;;1.83;0.90;;;;;;;38.63;39.54;101812.41;5040353;28;20481;-71
2022/07/13 09:18:50;;;;;;;3.40;1.42;;;;;;;38.86;41.00;101824.22;5033126;28;20086;-71
2022/07/13 09:21:18;;;;;;;1.83;1.20;;;;;;;39.26;42.01;101815.88;5032980;28;20075;-71
2022/07/13 09:23:47;;;;;;;1.65;1.08;;;;;;;39.11;40.16;101827.38;5029760;28;20029;-71
2022/07/13 09:26:13;;;;;;;2.00;1.15;;;;;;;39.18;39.10;101822.22;5040290;28;20025;-71
2022/07/13 09:28:48;;;;;;;1.77;1.00;;;;;;;39.48;39.80;101817.72;5035385;28;20029;-71
2022/07/13 09:31:14;;;;;;;1.38;0.98;;;;;;;39.19;39.16;101816.38;5036880;28;20024;-71
2022/07/13 09:33:43;;;;;;;2.33;0.95;;;;;;;39.26;39.17;101825.00;5034237;28;20025;-71
2022/07/13 09:36:11;;;;;;;;;;;;;;;39.13;39.35;101833.41;5037078;28;20017;-71
2022/07/13 09:38:41;;;;;;;3.95;1.00;;;;;;;39.42;38.89;101835.63;5033570;28;20003;-71
2022/07/13 09:41:21;;;;;;;;;;;;;;;39.64;39.45;101838.22;5034758;28;20033;-71
2022/07/13 09:46:47;;;;;;;2.47;1.48;;;;;;;39.85;38.29;101832.91;5037820;28;20087;-70
2022/07/13 09:49:16;;;;;;;5.90;1.10;;;;;;;39.99;39.01;101835.47;5035255;28;20099;-71
2022/07/13 09:51:44;;;;;;;2.00;1.20;;;;;;;40.20;38.59;101832.03;5037031;28;20033;-71
2022/07/13 09:54:11;;;;;;;1.95;1.02;;;;;;;40.26;39.30;101845.34;5032341;28;20222;-71
2022/07/13 09:56:37;;;;;;;1.83;1.10;;;;;;;40.49;37.84;101843.22;5042063;28;20061;-71
2022/07/13 09:59:04;;;;;;;1.67;0.85;;;;;;;40.72;36.29;101848.50;5030190;28;20028;-71
2022/07/13 10:01:31;;;;;;;1.08;0.88;;;;;;;40.30;36.64;101838.03;5037110;28;20056;-70
2022/07/13 10:03:58;;;;;;;1.65;0.80;;;;;;;40.44;36.91;101837.88;5034772;28;20021;-70
2022/07/13 10:06:25;;;;;;;1.02;0.80;;;;;;;40.70;35.26;101853.53;5034288;28;20504;-70
2022/07/13 10:08:53;;;;;;;0.90;0.70;;;;;;;40.66;35.96;101849.84;5034211;28;20474;-70
2022/07/13 10:11:19;;;;;;;1.27;0.88;;;;;;;40.39;36.76;101856.59;5036025;28;20040;-70
2022/07/13 10:13:45;;;;;;;3.05;1.05;;;;;;;40.08;37.67;101857.59;5038000;28;20029;-70
2022/07/13 10:16:11;;;;;;;1.67;0.70;;;;;;;40.20;36.93;101848.59;5040988;28;20029;-70
2022/07/13 10:18:39;;;;;;;1.00;0.73;;;;;;;39.88;38.76;101853.53;5032322;28;20123;-70
2022/07/13 10:21:13;;;;;;;2.08;0.70;;;;;;;40.14;36.96;101855.47;5037538;28;20485;-70
2022/07/13 10:23:39;;;;;;;1.40;0.93;;;;;;;40.24;35.88;101855.91;5034618;28;20634;-70
2022/07/13 10:26:19;;;;;;;2.15;1.10;;;;;;;40.43;36.94;101852.81;5037495;28;20253;-69
2022/07/13 10:29:05;;;;;;;1.02;0.73;;;;;;;40.90;37.53;101860.34;5036433;28;20460;-69
2022/07/13 10:31:33;;;;;;;2.35;0.80;;;;;;;41.11;35.22;101854.84;5035155;28;20378;-70
2022/07/13 10:34:00;;;;;;;1.02;0.70;;;;;;;40.80;35.10;101861.50;5033952;28;20533;-70
2022/07/13 10:36:57;;;;;;;3.65;0.80;;;;;;;41.09;36.21;101862.66;5034166;28;20378;-70
2022/07/13 10:39:28;;;;;;;1.15;0.70;;;;;;;41.00;35.35;101859.13;5041375;28;20024;-69
2022/07/13 10:42:10;;;;;;;1.25;0.80;;;;;;;41.08;35.92;101867.41;5036876;28;20556;-69
2022/07/13 10:44:43;;;;;;;2.72;0.90;;;;;;;40.84;34.21;101850.59;5038769;28;20127;-69
2022/07/13 10:47:11;;;;;;;0.90;0.65;;;;;;;40.71;34.79;101869.84;5033067;28;20115;-69
2022/07/13 10:49:42;;;;;;;1.40;0.80;;;;;;;40.51;35.95;101876.09;5031030;28;20045;-69
2022/07/13 10:52:20;;;;;;;1.27;0.77;;;;;;;40.91;35.00;101876.59;5034150;28;20512;-69
2022/07/13 10:55:20;;;;;;;1.75;1.15;;;;;;;40.49;35.84;101886.66;5035945;28;20104;-69
2022/07/13 10:57:46;;;;;;;1.30;0.75;;;;;;;40.33;35.37;101902.13;5033169;28;20072;-69
2022/07/13 11:00:28;;;;;;;0.98;0.70;;;;;;;40.31;35.10;101899.72;5025839;28;20681;-69
2022/07/13 11:03:02;;;;;;;1.10;0.75;;;;;;;40.06;35.34;101899.38;5028636;28;21005;-69
2022/07/13 11:05:35;;;;;;;1.67;0.38;;;;;;;39.89;36.87;101899.38;5030321;28;20029;-69
2022/07/13 11:08:17;;;;;;;1.52;0.70;;;;;;;40.21;36.35;101903.59;5029603;28;20029;-69
2022/07/13 11:10:43;;;;;;;1.08;0.60;;;;;;;40.36;36.10;101916.13;5035844;28;20503;-69
2022/07/13 11:13:12;;;;;;;1.27;0.90;;;;;;;40.21;36.98;101911.09;5034164;28;20405;-69
2022/07/13 11:15:45;;;;;;;;;;;;;;;40.21;38.39;101902.78;5035413;28;20041;-69
2022/07/13 11:18:22;;;;;;;1.88;0.90;;;;;;;40.46;37.50;101904.75;5034950;28;19962;-69
2022/07/13 11:21:13;;;;;;;1.38;0.68;;;;;;;40.37;35.73;101912.22;5035460;28;20027;-70
2022/07/13 11:26:46;;;;;;;1.73;1.10;;;;;;;39.74;38.38;101924.69;5030262;28;20067;-69
2022/07/13 11:29:37;;;;;;;1.05;0.80;;;;;;;39.98;37.39;101919.53;5029747;28;20241;-69
2022/07/13 11:32:04;;;;;;;2.80;0.93;;;;;;;40.31;37.64;101930.16;5029614;28;20029;-69
2022/07/13 11:34:30;;;;;;;1.08;0.60;;;;;;;39.82;38.75;101937.72;5030994;28;20583;-69
2022/07/13 11:36:57;;;;;;;2.58;1.00;;;;;;;39.68;39.32;101937.88;5028569;28;20037;-69